Lafayette Regional Airport
KLFT : rendu visible

Aérodrome :











RETROUVEZ-NOUS SUR...

 
LOGIN :

S'inscrire | Disclaimer

   EN    FR    IT 

 









Légende :    VFR   VFR Marginal   IFR   IFR Intensif   IFR Très Intensif
Visi : 
Plafond : 
>= 8 km
>= 3000ft
5 à 8 km
1000 à 3000 ft
1500m à 5 km
500 à 1000 ft
800 à 1500m
200 à 500 ft
< 800m
< 200 ft
Symboles :   Orages  Brouillard  Fortes neiges  Fortes précipitations  Vent > 20 kt






- Altitude de l'aérodrome : 42 ft
- Code IATA : LFT


KLFT - Lafayette Regional

DERNIER METAR :
  • 290928Z AUTO 01005KT 10SM OVC030 19/14 A3002 RMK AO2 T01940139

METARs EXPIRÉS :
  • 290853Z AUTO 01005KT 10SM OVC026 19/13 A3001 RMK AO2 SLP160 60002 T01940133 50008
  • 290753Z AUTO 35008KT 10SM OVC021 20/16 A3002 RMK AO2 SLP164 T02000156
  • 290739Z AUTO 34009KT 10SM BKN021 BKN049 20/17 A3001 RMK AO2 T02000167
  • 290716Z AUTO 36007KT 10SM SCT022 SCT039 OVC049 21/18 A3000 RMK AO2 T02060178
  • 290653Z AUTO 33013KT 10SM BKN018 OVC024 21/18 A3001 RMK AO2 WSHFT 0622 RAB25E51 SLP162 P0002 T02110183
  • 290636Z AUTO 33011KT 6SM -RA SCT011 OVC018 22/19 A3001 RMK AO2 WSHFT 0622 RAB25 P0002 T02170189

TAF KLFT
Valide du 29 à 06h jusqu'au 30 à 06h UTC


290520Z 2906/3006 20010KT P6SM VCSH SCT015 BKN023 OVC035
TEMPO 2906/2907 SHRA SCT023 BKN035 OVC045
FM290700 34009KT P6SM SHRA SCT022 OVC030
TEMPO 2907/2910 BKN022 OVC035
FM291000 32005KT P6SM BKN035 OVC050
FM291400 02008KT P6SM OVC050



MET'MAP, la Météo Aéronautique d'un coup d'oeil ! - Copyright ORBIFLY Décembre 2007 - Disclaimer

ORBIFLY MET'MAP TEAM :

Programmation & Développement : Alexandra Zaïnal
Sur une idée originale de : Baudouin d'Aumeries
Assistance à la programmation : Marc-Olivier Méhu
Soutien technique & logistique : Manuel Goepfert

Contact : metmap@orbifly.com




SOURCES & CREDITS :

   NOAA       Earth
Advisory